sensor_id;sensor_type;location;lat;lon;timestamp;P1;durP1;ratioP1;P2;durP2;ratioP2
77432;SDS011;66752;48.576;8.876;2023-08-06T00:02:23;4.32;;;2.22;;
77432;SDS011;66752;48.576;8.876;2023-08-06T00:04:49;5.18;;;2.67;;
77432;SDS011;66752;48.576;8.876;2023-08-06T00:07:15;5.57;;;2.50;;
77432;SDS011;66752;48.576;8.876;2023-08-06T00:09:41;5.10;;;2.50;;
77432;SDS011;66752;48.576;8.876;2023-08-06T00:12:07;6.18;;;2.97;;
77432;SDS011;66752;48.576;8.876;2023-08-06T00:14:33;5.78;;;2.50;;
77432;SDS011;66752;48.576;8.876;2023-08-06T00:16:59;7.80;;;2.47;;
77432;SDS011;66752;48.576;8.876;2023-08-06T00:19:25;5.85;;;2.40;;
77432;SDS011;66752;48.576;8.876;2023-08-06T00:21:51;4.60;;;2.38;;
77432;SDS011;66752;48.576;8.876;2023-08-06T00:24:17;5.75;;;2.55;;
77432;SDS011;66752;48.576;8.876;2023-08-06T00:26:43;5.63;;;2.78;;
77432;SDS011;66752;48.576;8.876;2023-08-06T00:29:09;4.18;;;2.30;;
77432;SDS011;66752;48.576;8.876;2023-08-06T00:31:35;4.70;;;2.25;;
77432;SDS011;66752;48.576;8.876;2023-08-06T00:34:01;5.72;;;2.67;;
77432;SDS011;66752;48.576;8.876;2023-08-06T00:36:27;5.40;;;2.47;;
77432;SDS011;66752;48.576;8.876;2023-08-06T00:38:52;6.07;;;2.65;;
77432;SDS011;66752;48.576;8.876;2023-08-06T00:41:20;6.45;;;2.60;;
77432;SDS011;66752;48.576;8.876;2023-08-06T00:43:46;5.13;;;2.30;;
77432;SDS011;66752;48.576;8.876;2023-08-06T00:46:12;4.85;;;2.13;;
77432;SDS011;66752;48.576;8.876;2023-08-06T00:48:39;5.32;;;2.55;;
77432;SDS011;66752;48.576;8.876;2023-08-06T00:51:05;5.57;;;2.53;;
77432;SDS011;66752;48.576;8.876;2023-08-06T00:53:31;4.82;;;2.70;;
77432;SDS011;66752;48.576;8.876;2023-08-06T00:55:57;5.50;;;2.25;;
77432;SDS011;66752;48.576;8.876;2023-08-06T00:58:24;4.72;;;2.47;;
77432;SDS011;66752;48.576;8.876;2023-08-06T01:00:50;4.93;;;2.50;;
77432;SDS011;66752;48.576;8.876;2023-08-06T01:03:16;5.80;;;2.83;;
77432;SDS011;66752;48.576;8.876;2023-08-06T01:05:42;5.75;;;2.63;;
77432;SDS011;66752;48.576;8.876;2023-08-06T01:10:39;5.72;;;3.17;;
77432;SDS011;66752;48.576;8.876;2023-08-06T01:15:53;5.10;;;2.70;;
77432;SDS011;66752;48.576;8.876;2023-08-06T01:18:22;6.57;;;2.30;;
77432;SDS011;66752;48.576;8.876;2023-08-06T01:20:48;6.60;;;2.55;;
77432;SDS011;66752;48.576;8.876;2023-08-06T01:23:17;5.30;;;2.80;;
77432;SDS011;66752;48.576;8.876;2023-08-06T01:28:42;7.05;;;2.90;;
77432;SDS011;66752;48.576;8.876;2023-08-06T01:31:15;8.73;;;2.70;;
77432;SDS011;66752;48.576;8.876;2023-08-06T01:33:44;5.75;;;2.80;;
77432;SDS011;66752;48.576;8.876;2023-08-06T01:36:12;7.88;;;2.97;;
77432;SDS011;66752;48.576;8.876;2023-08-06T01:38:38;13.90;;;3.15;;
77432;SDS011;66752;48.576;8.876;2023-08-06T01:41:04;10.25;;;3.13;;
77432;SDS011;66752;48.576;8.876;2023-08-06T01:43:30;6.80;;;2.85;;
77432;SDS011;66752;48.576;8.876;2023-08-06T01:45:56;4.53;;;2.45;;
77432;SDS011;66752;48.576;8.876;2023-08-06T01:48:22;10.13;;;2.50;;
77432;SDS011;66752;48.576;8.876;2023-08-06T01:50:48;4.70;;;2.58;;
77432;SDS011;66752;48.576;8.876;2023-08-06T01:53:14;5.45;;;2.70;;
77432;SDS011;66752;48.576;8.876;2023-08-06T01:55:40;5.85;;;3.30;;
77432;SDS011;66752;48.576;8.876;2023-08-06T01:58:06;5.40;;;2.53;;
77432;SDS011;66752;48.576;8.876;2023-08-06T02:00:32;5.45;;;2.58;;
77432;SDS011;66752;48.576;8.876;2023-08-06T02:02:58;5.35;;;2.80;;
77432;SDS011;66752;48.576;8.876;2023-08-06T02:05:24;4.50;;;2.60;;
77432;SDS011;66752;48.576;8.876;2023-08-06T02:07:49;5.80;;;3.40;;
77432;SDS011;66752;48.576;8.876;2023-08-06T02:10:15;6.13;;;3.38;;
77432;SDS011;66752;48.576;8.876;2023-08-06T02:12:41;5.45;;;2.90;;
77432;SDS011;66752;48.576;8.876;2023-08-06T02:15:08;4.70;;;2.47;;
77432;SDS011;66752;48.576;8.876;2023-08-06T02:20:00;5.22;;;2.80;;
77432;SDS011;66752;48.576;8.876;2023-08-06T02:22:26;6.85;;;3.22;;
77432;SDS011;66752;48.576;8.876;2023-08-06T02:24:52;5.90;;;3.17;;
77432;SDS011;66752;48.576;8.876;2023-08-06T02:27:18;5.68;;;2.75;;
77432;SDS011;66752;48.576;8.876;2023-08-06T02:29:44;5.28;;;2.78;;
77432;SDS011;66752;48.576;8.876;2023-08-06T02:32:10;6.35;;;2.92;;
77432;SDS011;66752;48.576;8.876;2023-08-06T02:34:36;13.68;;;3.50;;
77432;SDS011;66752;48.576;8.876;2023-08-06T02:37:02;7.95;;;3.15;;
77432;SDS011;66752;48.576;8.876;2023-08-06T02:39:28;5.07;;;2.72;;
77432;SDS011;66752;48.576;8.876;2023-08-06T02:41:54;5.38;;;2.95;;
77432;SDS011;66752;48.576;8.876;2023-08-06T02:44:20;6.28;;;2.63;;
77432;SDS011;66752;48.576;8.876;2023-08-06T02:46:46;5.82;;;2.90;;
77432;SDS011;66752;48.576;8.876;2023-08-06T02:49:12;5.50;;;2.38;;
77432;SDS011;66752;48.576;8.876;2023-08-06T02:51:38;4.95;;;2.38;;
77432;SDS011;66752;48.576;8.876;2023-08-06T02:54:04;5.15;;;2.20;;
77432;SDS011;66752;48.576;8.876;2023-08-06T02:56:30;5.50;;;2.67;;
77432;SDS011;66752;48.576;8.876;2023-08-06T03:01:22;6.03;;;2.30;;
77432;SDS011;66752;48.576;8.876;2023-08-06T03:03:51;5.03;;;2.38;;
77432;SDS011;66752;48.576;8.876;2023-08-06T03:06:17;5.93;;;2.70;;
77432;SDS011;66752;48.576;8.876;2023-08-06T03:08:43;6.57;;;2.45;;
77432;SDS011;66752;48.576;8.876;2023-08-06T03:11:09;7.30;;;2.60;;
77432;SDS011;66752;48.576;8.876;2023-08-06T03:13:35;5.22;;;2.50;;
77432;SDS011;66752;48.576;8.876;2023-08-06T03:16:01;5.13;;;2.10;;
77432;SDS011;66752;48.576;8.876;2023-08-06T03:18:27;5.30;;;2.50;;
77432;SDS011;66752;48.576;8.876;2023-08-06T03:20:53;5.95;;;2.15;;
77432;SDS011;66752;48.576;8.876;2023-08-06T03:23:19;5.45;;;2.05;;
77432;SDS011;66752;48.576;8.876;2023-08-06T03:25:45;5.82;;;2.70;;
77432;SDS011;66752;48.576;8.876;2023-08-06T03:28:11;5.85;;;2.45;;
77432;SDS011;66752;48.576;8.876;2023-08-06T03:30:37;5.38;;;2.83;;
77432;SDS011;66752;48.576;8.876;2023-08-06T03:33:03;4.93;;;2.35;;
77432;SDS011;66752;48.576;8.876;2023-08-06T03:35:29;5.35;;;2.45;;
77432;SDS011;66752;48.576;8.876;2023-08-06T03:37:55;5.40;;;2.88;;
77432;SDS011;66752;48.576;8.876;2023-08-06T03:40:21;4.75;;;2.50;;
77432;SDS011;66752;48.576;8.876;2023-08-06T03:42:47;6.40;;;2.70;;
77432;SDS011;66752;48.576;8.876;2023-08-06T03:45:13;6.43;;;2.40;;
77432;SDS011;66752;48.576;8.876;2023-08-06T03:47:39;3.97;;;2.17;;
77432;SDS011;66752;48.576;8.876;2023-08-06T03:50:05;5.90;;;2.53;;
77432;SDS011;66752;48.576;8.876;2023-08-06T03:52:31;4.78;;;2.25;;
77432;SDS011;66752;48.576;8.876;2023-08-06T03:54:57;4.25;;;2.00;;
77432;SDS011;66752;48.576;8.876;2023-08-06T03:57:23;5.68;;;2.05;;
77432;SDS011;66752;48.576;8.876;2023-08-06T03:59:49;6.53;;;2.03;;
77432;SDS011;66752;48.576;8.876;2023-08-06T04:02:15;5.55;;;1.95;;
77432;SDS011;66752;48.576;8.876;2023-08-06T04:04:41;5.10;;;2.10;;
77432;SDS011;66752;48.576;8.876;2023-08-06T04:07:07;4.78;;;1.83;;
77432;SDS011;66752;48.576;8.876;2023-08-06T04:09:33;4.43;;;1.73;;
77432;SDS011;66752;48.576;8.876;2023-08-06T04:11:59;4.80;;;1.67;;
77432;SDS011;66752;48.576;8.876;2023-08-06T04:14:26;5.10;;;1.50;;
77432;SDS011;66752;48.576;8.876;2023-08-06T04:16:52;4.13;;;1.48;;
77432;SDS011;66752;48.576;8.876;2023-08-06T04:19:18;4.47;;;1.70;;
77432;SDS011;66752;48.576;8.876;2023-08-06T04:21:44;6.85;;;1.73;;
77432;SDS011;66752;48.576;8.876;2023-08-06T04:24:10;4.90;;;1.50;;
77432;SDS011;66752;48.576;8.876;2023-08-06T04:26:36;5.82;;;1.50;;
77432;SDS011;66752;48.576;8.876;2023-08-06T04:29:02;4.43;;;1.52;;
77432;SDS011;66752;48.576;8.876;2023-08-06T04:31:28;6.30;;;1.40;;
77432;SDS011;66752;48.576;8.876;2023-08-06T04:33:54;6.10;;;1.58;;
77432;SDS011;66752;48.576;8.876;2023-08-06T04:36:20;3.70;;;1.20;;
77432;SDS011;66752;48.576;8.876;2023-08-06T04:38:46;5.72;;;1.80;;
77432;SDS011;66752;48.576;8.876;2023-08-06T04:41:12;4.50;;;1.45;;
77432;SDS011;66752;48.576;8.876;2023-08-06T04:43:38;7.18;;;1.30;;
77432;SDS011;66752;48.576;8.876;2023-08-06T04:46:05;3.60;;;1.00;;
77432;SDS011;66752;48.576;8.876;2023-08-06T04:48:31;6.05;;;1.45;;
77432;SDS011;66752;48.576;8.876;2023-08-06T04:50:57;5.15;;;1.10;;
77432;SDS011;66752;48.576;8.876;2023-08-06T04:53:23;3.42;;;1.00;;
77432;SDS011;66752;48.576;8.876;2023-08-06T04:55:49;4.30;;;1.10;;
77432;SDS011;66752;48.576;8.876;2023-08-06T04:58:15;4.57;;;1.10;;
77432;SDS011;66752;48.576;8.876;2023-08-06T05:00:41;5.15;;;0.80;;
77432;SDS011;66752;48.576;8.876;2023-08-06T05:03:07;3.30;;;1.30;;
77432;SDS011;66752;48.576;8.876;2023-08-06T05:05:33;3.67;;;1.13;;
77432;SDS011;66752;48.576;8.876;2023-08-06T05:07:59;4.60;;;1.00;;
77432;SDS011;66752;48.576;8.876;2023-08-06T05:10:25;3.28;;;0.77;;
77432;SDS011;66752;48.576;8.876;2023-08-06T05:12:52;2.83;;;0.90;;
77432;SDS011;66752;48.576;8.876;2023-08-06T05:15:18;2.42;;;0.70;;
77432;SDS011;66752;48.576;8.876;2023-08-06T05:17:44;2.85;;;0.90;;
77432;SDS011;66752;48.576;8.876;2023-08-06T05:20:10;4.40;;;1.10;;
77432;SDS011;66752;48.576;8.876;2023-08-06T05:22:36;2.55;;;0.80;;
77432;SDS011;66752;48.576;8.876;2023-08-06T05:25:02;2.80;;;1.02;;
77432;SDS011;66752;48.576;8.876;2023-08-06T05:27:28;2.70;;;0.63;;
77432;SDS011;66752;48.576;8.876;2023-08-06T05:29:54;2.92;;;0.80;;
77432;SDS011;66752;48.576;8.876;2023-08-06T05:32:21;4.28;;;0.95;;
77432;SDS011;66752;48.576;8.876;2023-08-06T05:34:47;4.15;;;0.85;;
77432;SDS011;66752;48.576;8.876;2023-08-06T05:37:13;4.20;;;0.70;;
77432;SDS011;66752;48.576;8.876;2023-08-06T05:39:39;3.50;;;0.70;;
77432;SDS011;66752;48.576;8.876;2023-08-06T05:42:05;5.88;;;1.70;;
77432;SDS011;66752;48.576;8.876;2023-08-06T05:44:31;4.80;;;1.00;;
77432;SDS011;66752;48.576;8.876;2023-08-06T05:46:57;2.40;;;0.82;;
77432;SDS011;66752;48.576;8.876;2023-08-06T05:49:23;4.03;;;1.02;;
77432;SDS011;66752;48.576;8.876;2023-08-06T05:51:49;3.80;;;0.85;;
77432;SDS011;66752;48.576;8.876;2023-08-06T05:54:18;5.45;;;1.00;;
77432;SDS011;66752;48.576;8.876;2023-08-06T05:56:44;2.47;;;0.88;;
77432;SDS011;66752;48.576;8.876;2023-08-06T05:59:10;3.58;;;0.95;;
77432;SDS011;66752;48.576;8.876;2023-08-06T06:01:35;3.88;;;1.25;;
77432;SDS011;66752;48.576;8.876;2023-08-06T06:04:01;4.38;;;0.90;;
77432;SDS011;66752;48.576;8.876;2023-08-06T06:06:27;4.07;;;1.52;;
77432;SDS011;66752;48.576;8.876;2023-08-06T06:08:53;4.60;;;1.77;;
77432;SDS011;66752;48.576;8.876;2023-08-06T06:11:19;2.25;;;0.85;;
77432;SDS011;66752;48.576;8.876;2023-08-06T06:13:47;3.15;;;0.95;;
77432;SDS011;66752;48.576;8.876;2023-08-06T06:16:13;3.70;;;0.88;;
77432;SDS011;66752;48.576;8.876;2023-08-06T06:18:39;2.40;;;0.88;;
77432;SDS011;66752;48.576;8.876;2023-08-06T06:21:05;2.90;;;0.80;;
77432;SDS011;66752;48.576;8.876;2023-08-06T06:23:31;5.00;;;1.20;;
77432;SDS011;66752;48.576;8.876;2023-08-06T06:25:57;3.35;;;0.98;;
77432;SDS011;66752;48.576;8.876;2023-08-06T06:28:22;3.97;;;1.00;;
77432;SDS011;66752;48.576;8.876;2023-08-06T06:30:48;4.13;;;1.05;;
77432;SDS011;66752;48.576;8.876;2023-08-06T06:33:15;2.83;;;0.88;;
77432;SDS011;66752;48.576;8.876;2023-08-06T06:35:41;3.40;;;1.00;;
77432;SDS011;66752;48.576;8.876;2023-08-06T06:38:06;4.05;;;1.00;;
77432;SDS011;66752;48.576;8.876;2023-08-06T06:40:32;3.50;;;1.00;;
77432;SDS011;66752;48.576;8.876;2023-08-06T06:42:58;2.15;;;0.80;;
77432;SDS011;66752;48.576;8.876;2023-08-06T06:45:24;3.40;;;0.90;;
77432;SDS011;66752;48.576;8.876;2023-08-06T06:47:50;5.45;;;1.20;;
77432;SDS011;66752;48.576;8.876;2023-08-06T06:50:16;1.98;;;0.60;;
77432;SDS011;66752;48.576;8.876;2023-08-06T06:52:42;2.30;;;0.50;;
77432;SDS011;66752;48.576;8.876;2023-08-06T06:55:08;2.03;;;0.50;;
77432;SDS011;66752;48.576;8.876;2023-08-06T06:57:34;1.40;;;0.40;;
77432;SDS011;66752;48.576;8.876;2023-08-06T07:00:00;2.38;;;0.75;;
77432;SDS011;66752;48.576;8.876;2023-08-06T07:02:26;0.75;;;0.40;;
77432;SDS011;66752;48.576;8.876;2023-08-06T07:04:52;0.63;;;0.20;;
77432;SDS011;66752;48.576;8.876;2023-08-06T07:07:18;1.08;;;0.25;;
77432;SDS011;66752;48.576;8.876;2023-08-06T07:09:44;0.80;;;0.25;;
77432;SDS011;66752;48.576;8.876;2023-08-06T07:12:10;1.45;;;0.20;;
77432;SDS011;66752;48.576;8.876;2023-08-06T07:14:36;1.58;;;0.50;;
77432;SDS011;66752;48.576;8.876;2023-08-06T07:17:03;0.82;;;0.20;;
77432;SDS011;66752;48.576;8.876;2023-08-06T07:19:29;1.33;;;0.30;;
77432;SDS011;66752;48.576;8.876;2023-08-06T07:21:56;0.55;;;0.20;;
77432;SDS011;66752;48.576;8.876;2023-08-06T07:24:22;3.13;;;0.45;;
77432;SDS011;66752;48.576;8.876;2023-08-06T07:26:48;1.65;;;0.30;;
77432;SDS011;66752;48.576;8.876;2023-08-06T07:29:13;0.32;;;0.20;;
77432;SDS011;66752;48.576;8.876;2023-08-06T07:31:44;0.68;;;0.28;;
77432;SDS011;66752;48.576;8.876;2023-08-06T07:34:10;0.70;;;0.25;;
77432;SDS011;66752;48.576;8.876;2023-08-06T07:36:37;2.25;;;0.35;;
77432;SDS011;66752;48.576;8.876;2023-08-06T07:39:03;1.08;;;0.25;;
77432;SDS011;66752;48.576;8.876;2023-08-06T07:41:31;0.90;;;0.25;;
77432;SDS011;66752;48.576;8.876;2023-08-06T07:43:57;0.65;;;0.20;;
77432;SDS011;66752;48.576;8.876;2023-08-06T07:46:23;0.00;;;0.00;;
77432;SDS011;66752;48.576;8.876;2023-08-06T07:48:49;0.90;;;0.10;;
77432;SDS011;66752;48.576;8.876;2023-08-06T07:51:15;0.85;;;0.35;;
77432;SDS011;66752;48.576;8.876;2023-08-06T07:53:41;1.55;;;0.35;;
77432;SDS011;66752;48.576;8.876;2023-08-06T07:56:07;0.38;;;0.28;;
77432;SDS011;66752;48.576;8.876;2023-08-06T07:58:33;1.25;;;0.30;;
77432;SDS011;66752;48.576;8.876;2023-08-06T08:00:59;0.73;;;0.20;;
77432;SDS011;66752;48.576;8.876;2023-08-06T08:03:25;0.45;;;0.17;;
77432;SDS011;66752;48.576;8.876;2023-08-06T08:05:53;0.35;;;0.30;;
77432;SDS011;66752;48.576;8.876;2023-08-06T08:08:22;0.17;;;0.13;;
77432;SDS011;66752;48.576;8.876;2023-08-06T08:10:48;0.32;;;0.15;;
77432;SDS011;66752;48.576;8.876;2023-08-06T08:13:14;0.38;;;0.25;;
77432;SDS011;66752;48.576;8.876;2023-08-06T08:15:40;0.82;;;0.30;;
77432;SDS011;66752;48.576;8.876;2023-08-06T08:18:07;0.38;;;0.20;;
77432;SDS011;66752;48.576;8.876;2023-08-06T08:20:33;0.30;;;0.20;;
77432;SDS011;66752;48.576;8.876;2023-08-06T08:23:00;0.63;;;0.30;;
77432;SDS011;66752;48.576;8.876;2023-08-06T08:25:26;0.52;;;0.28;;
77432;SDS011;66752;48.576;8.876;2023-08-06T08:27:53;1.23;;;0.50;;
77432;SDS011;66752;48.576;8.876;2023-08-06T08:30:19;0.08;;;0.03;;
77432;SDS011;66752;48.576;8.876;2023-08-06T08:32:45;0.88;;;0.20;;
77432;SDS011;66752;48.576;8.876;2023-08-06T08:35:11;0.77;;;0.30;;
77432;SDS011;66752;48.576;8.876;2023-08-06T08:37:38;1.23;;;0.40;;
77432;SDS011;66752;48.576;8.876;2023-08-06T08:42:30;1.42;;;0.30;;
77432;SDS011;66752;48.576;8.876;2023-08-06T08:44:56;0.40;;;0.20;;
77432;SDS011;66752;48.576;8.876;2023-08-06T08:47:22;0.32;;;0.15;;
77432;SDS011;66752;48.576;8.876;2023-08-06T08:49:52;1.67;;;0.40;;
77432;SDS011;66752;48.576;8.876;2023-08-06T08:54:49;0.30;;;0.20;;
77432;SDS011;66752;48.576;8.876;2023-08-06T08:57:17;0.20;;;0.20;;
77432;SDS011;66752;48.576;8.876;2023-08-06T08:59:43;0.32;;;0.10;;
77432;SDS011;66752;48.576;8.876;2023-08-06T09:02:09;0.43;;;0.20;;
77432;SDS011;66752;48.576;8.876;2023-08-06T09:04:37;0.55;;;0.10;;
77432;SDS011;66752;48.576;8.876;2023-08-06T09:07:03;0.60;;;0.38;;
77432;SDS011;66752;48.576;8.876;2023-08-06T09:09:31;0.90;;;0.40;;
77432;SDS011;66752;48.576;8.876;2023-08-06T09:12:00;0.75;;;0.25;;
77432;SDS011;66752;48.576;8.876;2023-08-06T09:14:27;0.30;;;0.10;;
77432;SDS011;66752;48.576;8.876;2023-08-06T09:16:53;0.55;;;0.20;;
77432;SDS011;66752;48.576;8.876;2023-08-06T09:21:46;0.38;;;0.20;;
77432;SDS011;66752;48.576;8.876;2023-08-06T09:24:13;0.20;;;0.20;;
77432;SDS011;66752;48.576;8.876;2023-08-06T09:26:40;0.73;;;0.47;;
77432;SDS011;66752;48.576;8.876;2023-08-06T09:29:06;0.55;;;0.20;;
77432;SDS011;66752;48.576;8.876;2023-08-06T09:31:34;0.20;;;0.10;;
77432;SDS011;66752;48.576;8.876;2023-08-06T09:34:06;0.52;;;0.30;;
77432;SDS011;66752;48.576;8.876;2023-08-06T09:36:39;1.25;;;0.52;;
77432;SDS011;66752;48.576;8.876;2023-08-06T09:39:12;0.70;;;0.30;;
77432;SDS011;66752;48.576;8.876;2023-08-06T09:41:38;3.28;;;1.15;;
77432;SDS011;66752;48.576;8.876;2023-08-06T09:46:31;1.25;;;0.40;;
77432;SDS011;66752;48.576;8.876;2023-08-06T09:48:58;0.93;;;0.30;;
77432;SDS011;66752;48.576;8.876;2023-08-06T09:51:24;0.57;;;0.20;;
77432;SDS011;66752;48.576;8.876;2023-08-06T09:56:17;1.20;;;0.10;;
77432;SDS011;66752;48.576;8.876;2023-08-06T09:58:43;0.85;;;0.40;;
77432;SDS011;66752;48.576;8.876;2023-08-06T10:01:10;1.15;;;0.40;;
77432;SDS011;66752;48.576;8.876;2023-08-06T10:03:37;1.10;;;0.20;;
77432;SDS011;66752;48.576;8.876;2023-08-06T10:06:04;1.65;;;0.25;;
77432;SDS011;66752;48.576;8.876;2023-08-06T10:08:32;1.00;;;0.30;;
77432;SDS011;66752;48.576;8.876;2023-08-06T10:10:59;0.45;;;0.25;;
77432;SDS011;66752;48.576;8.876;2023-08-06T10:13:25;0.75;;;0.35;;
77432;SDS011;66752;48.576;8.876;2023-08-06T10:15:51;0.60;;;0.20;;
77432;SDS011;66752;48.576;8.876;2023-08-06T10:18:17;0.90;;;0.30;;
77432;SDS011;66752;48.576;8.876;2023-08-06T10:20:46;1.35;;;0.35;;
77432;SDS011;66752;48.576;8.876;2023-08-06T10:23:12;2.05;;;0.60;;
77432;SDS011;66752;48.576;8.876;2023-08-06T10:25:42;0.38;;;0.25;;
77432;SDS011;66752;48.576;8.876;2023-08-06T10:28:08;0.35;;;0.30;;
77432;SDS011;66752;48.576;8.876;2023-08-06T10:30:40;0.82;;;0.25;;
77432;SDS011;66752;48.576;8.876;2023-08-06T10:33:06;0.98;;;0.30;;
77432;SDS011;66752;48.576;8.876;2023-08-06T10:38:05;1.05;;;0.32;;
77432;SDS011;66752;48.576;8.876;2023-08-06T10:40:32;2.05;;;0.50;;
77432;SDS011;66752;48.576;8.876;2023-08-06T10:42:59;2.28;;;0.40;;
77432;SDS011;66752;48.576;8.876;2023-08-06T10:45:25;1.75;;;0.20;;
77432;SDS011;66752;48.576;8.876;2023-08-06T10:47:53;0.82;;;0.20;;
77432;SDS011;66752;48.576;8.876;2023-08-06T10:50:19;0.32;;;0.10;;
77432;SDS011;66752;48.576;8.876;2023-08-06T10:52:46;0.85;;;0.20;;
77432;SDS011;66752;48.576;8.876;2023-08-06T10:55:12;1.00;;;0.47;;
77432;SDS011;66752;48.576;8.876;2023-08-06T11:00:05;1.13;;;0.30;;
77432;SDS011;66752;48.576;8.876;2023-08-06T11:02:38;1.15;;;0.45;;
77432;SDS011;66752;48.576;8.876;2023-08-06T11:05:07;0.88;;;0.20;;
77432;SDS011;66752;48.576;8.876;2023-08-06T11:07:34;0.60;;;0.15;;
77432;SDS011;66752;48.576;8.876;2023-08-06T11:12:26;0.28;;;0.10;;
77432;SDS011;66752;48.576;8.876;2023-08-06T11:14:53;1.60;;;0.40;;
77432;SDS011;66752;48.576;8.876;2023-08-06T11:17:20;1.15;;;0.20;;
77432;SDS011;66752;48.576;8.876;2023-08-06T11:19:46;0.55;;;0.22;;
77432;SDS011;66752;48.576;8.876;2023-08-06T11:22:14;0.82;;;0.22;;
77432;SDS011;66752;48.576;8.876;2023-08-06T11:24:40;1.10;;;0.30;;
77432;SDS011;66752;48.576;8.876;2023-08-06T11:27:12;0.65;;;0.20;;
77432;SDS011;66752;48.576;8.876;2023-08-06T11:29:39;0.75;;;0.20;;
77432;SDS011;66752;48.576;8.876;2023-08-06T11:32:05;0.88;;;0.20;;
77432;SDS011;66752;48.576;8.876;2023-08-06T11:34:31;1.45;;;0.45;;
77432;SDS011;66752;48.576;8.876;2023-08-06T11:36:57;2.13;;;0.50;;
77432;SDS011;66752;48.576;8.876;2023-08-06T11:39:23;3.85;;;0.47;;
77432;SDS011;66752;48.576;8.876;2023-08-06T11:41:49;1.20;;;0.30;;
77432;SDS011;66752;48.576;8.876;2023-08-06T11:44:15;0.95;;;0.30;;
77432;SDS011;66752;48.576;8.876;2023-08-06T11:46:53;1.00;;;0.40;;
77432;SDS011;66752;48.576;8.876;2023-08-06T11:49:36;1.85;;;0.60;;
77432;SDS011;66752;48.576;8.876;2023-08-06T11:52:18;1.80;;;0.50;;
77432;SDS011;66752;48.576;8.876;2023-08-06T11:54:45;1.67;;;0.60;;
77432;SDS011;66752;48.576;8.876;2023-08-06T11:57:12;1.33;;;0.50;;
77432;SDS011;66752;48.576;8.876;2023-08-06T11:59:38;1.48;;;0.60;;
77432;SDS011;66752;48.576;8.876;2023-08-06T12:02:05;3.15;;;0.75;;
77432;SDS011;66752;48.576;8.876;2023-08-06T12:07:17;2.47;;;0.88;;
77432;SDS011;66752;48.576;8.876;2023-08-06T12:09:43;2.67;;;0.90;;
77432;SDS011;66752;48.576;8.876;2023-08-06T12:12:09;3.50;;;1.10;;
77432;SDS011;66752;48.576;8.876;2023-08-06T12:14:36;2.88;;;1.00;;
77432;SDS011;66752;48.576;8.876;2023-08-06T12:17:02;3.47;;;1.05;;
77432;SDS011;66752;48.576;8.876;2023-08-06T12:19:28;3.80;;;1.20;;
77432;SDS011;66752;48.576;8.876;2023-08-06T12:21:55;3.80;;;1.52;;
77432;SDS011;66752;48.576;8.876;2023-08-06T12:24:21;3.13;;;1.17;;
77432;SDS011;66752;48.576;8.876;2023-08-06T12:26:47;3.33;;;1.33;;
77432;SDS011;66752;48.576;8.876;2023-08-06T12:29:13;3.33;;;1.17;;
77432;SDS011;66752;48.576;8.876;2023-08-06T12:31:39;3.30;;;1.25;;
77432;SDS011;66752;48.576;8.876;2023-08-06T12:34:05;2.95;;;1.00;;
77432;SDS011;66752;48.576;8.876;2023-08-06T12:36:31;2.67;;;0.90;;
77432;SDS011;66752;48.576;8.876;2023-08-06T12:38:56;4.13;;;0.90;;
77432;SDS011;66752;48.576;8.876;2023-08-06T12:41:22;2.25;;;0.80;;
77432;SDS011;66752;48.576;8.876;2023-08-06T12:46:15;2.35;;;0.80;;
77432;SDS011;66752;48.576;8.876;2023-08-06T12:48:41;2.47;;;0.88;;
77432;SDS011;66752;48.576;8.876;2023-08-06T12:51:07;2.33;;;0.73;;
77432;SDS011;66752;48.576;8.876;2023-08-06T12:53:33;2.05;;;0.63;;
77432;SDS011;66752;48.576;8.876;2023-08-06T12:55:59;2.90;;;0.73;;
77432;SDS011;66752;48.576;8.876;2023-08-06T12:58:25;2.58;;;0.80;;
77432;SDS011;66752;48.576;8.876;2023-08-06T13:00:51;2.05;;;0.77;;
77432;SDS011;66752;48.576;8.876;2023-08-06T13:03:17;1.83;;;0.60;;
77432;SDS011;66752;48.576;8.876;2023-08-06T13:05:43;2.58;;;0.80;;
77432;SDS011;66752;48.576;8.876;2023-08-06T13:08:10;3.35;;;0.75;;
77432;SDS011;66752;48.576;8.876;2023-08-06T13:10:36;2.42;;;0.80;;
77432;SDS011;66752;48.576;8.876;2023-08-06T13:13:02;2.55;;;0.82;;
77432;SDS011;66752;48.576;8.876;2023-08-06T13:15:28;2.45;;;0.80;;
77432;SDS011;66752;48.576;8.876;2023-08-06T13:17:54;2.63;;;0.90;;
77432;SDS011;66752;48.576;8.876;2023-08-06T13:20:20;2.80;;;0.82;;
77432;SDS011;66752;48.576;8.876;2023-08-06T13:22:47;3.92;;;0.90;;
77432;SDS011;66752;48.576;8.876;2023-08-06T13:25:15;2.22;;;1.08;;
77432;SDS011;66752;48.576;8.876;2023-08-06T13:30:09;2.15;;;0.73;;
77432;SDS011;66752;48.576;8.876;2023-08-06T13:32:35;3.22;;;0.70;;
77432;SDS011;66752;48.576;8.876;2023-08-06T13:35:02;1.73;;;0.70;;
77432;SDS011;66752;48.576;8.876;2023-08-06T13:39:54;2.90;;;1.00;;
77432;SDS011;66752;48.576;8.876;2023-08-06T13:42:20;3.88;;;0.80;;
77432;SDS011;66752;48.576;8.876;2023-08-06T13:44:46;2.13;;;0.70;;
77432;SDS011;66752;48.576;8.876;2023-08-06T13:47:12;3.40;;;0.70;;
77432;SDS011;66752;48.576;8.876;2023-08-06T13:49:38;1.95;;;0.65;;
77432;SDS011;66752;48.576;8.876;2023-08-06T13:52:04;2.10;;;0.65;;
77432;SDS011;66752;48.576;8.876;2023-08-06T13:54:30;2.38;;;0.80;;
77432;SDS011;66752;48.576;8.876;2023-08-06T13:56:56;2.40;;;0.75;;
77432;SDS011;66752;48.576;8.876;2023-08-06T13:59:22;2.65;;;0.80;;
77432;SDS011;66752;48.576;8.876;2023-08-06T14:01:49;1.63;;;0.68;;
77432;SDS011;66752;48.576;8.876;2023-08-06T14:04:15;2.53;;;0.60;;
77432;SDS011;66752;48.576;8.876;2023-08-06T14:06:41;1.67;;;0.60;;
77432;SDS011;66752;48.576;8.876;2023-08-06T14:09:07;2.58;;;0.65;;
77432;SDS011;66752;48.576;8.876;2023-08-06T14:11:33;3.00;;;0.77;;
77432;SDS011;66752;48.576;8.876;2023-08-06T14:13:59;1.80;;;0.60;;
77432;SDS011;66752;48.576;8.876;2023-08-06T14:16:25;2.08;;;0.70;;
77432;SDS011;66752;48.576;8.876;2023-08-06T14:18:51;3.63;;;0.93;;
77432;SDS011;66752;48.576;8.876;2023-08-06T14:21:17;2.95;;;0.90;;
77432;SDS011;66752;48.576;8.876;2023-08-06T14:23:43;1.98;;;0.52;;
77432;SDS011;66752;48.576;8.876;2023-08-06T14:26:10;2.88;;;0.80;;
77432;SDS011;66752;48.576;8.876;2023-08-06T14:28:36;2.95;;;0.80;;
77432;SDS011;66752;48.576;8.876;2023-08-06T14:31:02;1.92;;;0.60;;
77432;SDS011;66752;48.576;8.876;2023-08-06T14:33:28;3.58;;;0.75;;
77432;SDS011;66752;48.576;8.876;2023-08-06T14:35:54;2.28;;;0.70;;
77432;SDS011;66752;48.576;8.876;2023-08-06T14:38:20;3.70;;;0.80;;
77432;SDS011;66752;48.576;8.876;2023-08-06T14:40:46;2.47;;;0.80;;
77432;SDS011;66752;48.576;8.876;2023-08-06T14:43:12;2.25;;;0.82;;
77432;SDS011;66752;48.576;8.876;2023-08-06T14:45:38;2.35;;;0.70;;
77432;SDS011;66752;48.576;8.876;2023-08-06T14:50:30;2.35;;;0.80;;
77432;SDS011;66752;48.576;8.876;2023-08-06T14:52:56;1.48;;;0.50;;
77432;SDS011;66752;48.576;8.876;2023-08-06T14:55:25;1.80;;;0.50;;
77432;SDS011;66752;48.576;8.876;2023-08-06T14:57:52;3.05;;;0.80;;
77432;SDS011;66752;48.576;8.876;2023-08-06T15:00:18;2.45;;;0.70;;
77432;SDS011;66752;48.576;8.876;2023-08-06T15:02:45;5.72;;;1.50;;
77432;SDS011;66752;48.576;8.876;2023-08-06T15:05:15;2.00;;;0.70;;
77432;SDS011;66752;48.576;8.876;2023-08-06T15:07:41;1.88;;;0.70;;
77432;SDS011;66752;48.576;8.876;2023-08-06T15:10:07;4.40;;;1.00;;
77432;SDS011;66752;48.576;8.876;2023-08-06T15:12:33;2.28;;;0.90;;
77432;SDS011;66752;48.576;8.876;2023-08-06T15:14:59;2.28;;;0.80;;
77432;SDS011;66752;48.576;8.876;2023-08-06T15:17:26;2.45;;;0.90;;
77432;SDS011;66752;48.576;8.876;2023-08-06T15:19:55;2.38;;;0.82;;
77432;SDS011;66752;48.576;8.876;2023-08-06T15:22:21;3.45;;;1.00;;
77432;SDS011;66752;48.576;8.876;2023-08-06T15:24:47;2.55;;;0.80;;
77432;SDS011;66752;48.576;8.876;2023-08-06T15:27:13;2.50;;;0.80;;
77432;SDS011;66752;48.576;8.876;2023-08-06T15:29:39;3.20;;;0.73;;